Terminal Aerodrome Forecast
Issued by NWS

Home | Current Version | Previous Version | Text Only | Print | Product List | Glossary On
Versions: 1 2 3 4 5 6 7 8 9 10 11 12 13 14 15
000
FTUS45 KRIW 242300
TAFBPI
TAF
KBPI 242325Z 2500/2524 26014G20KT P6SM SKC
     FM250100 VRB05KT P6SM SKC
     FM251900 21007KT P6SM SCT080=

USA.gov is the U.S. government's official web portal to all federal, state and local government web resources and services.